createdAt,value
2019-05-10T00:00:58.672Z,13.80
2019-05-10T00:03:46.151Z,13.80
2019-05-10T00:06:33.720Z,13.80
2019-05-10T00:09:02.538Z,13.70
2019-05-10T00:11:39.484Z,13.70
2019-05-10T00:14:15.813Z,13.80
2019-05-10T00:16:45.876Z,13.80
2019-05-10T00:19:15.163Z,13.70
2019-05-10T00:21:45.455Z,13.80
2019-05-10T00:24:14.776Z,13.70
2019-05-10T00:26:44.422Z,13.80
2019-05-10T00:29:13.746Z,13.80
2019-05-10T00:31:43.076Z,13.80
2019-05-10T00:34:13.451Z,13.80
2019-05-10T00:36:42.754Z,13.80
2019-05-10T00:39:12.069Z,13.80
2019-05-10T00:41:41.399Z,13.80
2019-05-10T00:44:10.687Z,13.80
2019-05-10T00:46:40.070Z,13.90
2019-05-10T00:49:10.508Z,14.00
2019-05-10T00:51:39.827Z,13.90
2019-05-10T00:54:09.192Z,13.80
2019-05-10T00:56:38.511Z,13.80
2019-05-10T00:59:07.820Z,13.70
2019-05-10T01:01:37.151Z,13.80
2019-05-10T01:04:06.476Z,13.90
2019-05-10T01:06:35.802Z,13.90
2019-05-10T01:09:06.315Z,13.90
2019-05-10T01:11:35.676Z,13.80
2019-05-10T01:14:05.059Z,13.80
2019-05-10T01:16:34.396Z,13.90
2019-05-10T01:19:03.748Z,13.90
2019-05-10T01:21:33.067Z,14.00
2019-05-10T01:24:02.594Z,14.00
2019-05-10T01:26:31.993Z,14.00
2019-05-10T01:29:01.312Z,14.10
2019-05-10T01:31:30.664Z,14.00
2019-05-10T01:33:59.972Z,13.90
2019-05-10T01:36:29.283Z,13.70
2019-05-10T01:38:58.604Z,13.80
2019-05-10T01:41:27.931Z,13.80
2019-05-10T01:43:57.407Z,13.80
2019-05-10T01:46:26.770Z,13.80
2019-05-10T01:48:56.084Z,13.70
2019-05-10T01:51:27.769Z,13.80
2019-05-10T01:53:56.443Z,13.90
2019-05-10T01:56:25.757Z,13.80
2019-05-10T01:58:55.091Z,13.90
2019-05-10T02:01:24.696Z,13.90
2019-05-10T02:03:54.015Z,13.90
2019-05-10T02:06:23.325Z,13.90
2019-05-10T02:08:52.639Z,14.00
2019-05-10T02:11:22.009Z,13.90
2019-05-10T02:13:51.364Z,13.90
2019-05-10T02:16:20.665Z,13.80
2019-05-10T02:18:50.981Z,13.80
2019-05-10T02:21:20.288Z,13.80
2019-05-10T02:23:49.615Z,13.70
2019-05-10T02:26:19.032Z,13.60
2019-05-10T02:28:48.418Z,13.60
2019-05-10T02:31:21.466Z,13.60
2019-05-10T02:33:48.904Z,13.70
2019-05-10T02:36:18.691Z,13.80
2019-05-10T02:38:48.022Z,13.80
2019-05-10T02:41:17.335Z,13.70
2019-05-10T02:43:46.732Z,13.70
2019-05-10T02:46:16.139Z,13.70
2019-05-10T02:48:45.531Z,13.60
2019-05-10T02:51:14.846Z,13.60
2019-05-10T02:53:44.348Z,13.60
2019-05-10T02:56:29.762Z,13.70
2019-05-10T02:58:47.721Z,13.70
2019-05-10T03:01:20.111Z,13.70
2019-05-10T03:03:52.925Z,13.60
2019-05-10T03:06:24.221Z,13.60
2019-05-10T03:08:53.991Z,13.60
2019-05-10T03:11:23.300Z,13.60
2019-05-10T03:13:52.979Z,13.60
2019-05-10T03:16:23.410Z,13.50
2019-05-10T03:18:53.337Z,13.50
2019-05-10T03:21:24.071Z,13.50
2019-05-10T03:23:53.510Z,13.50
2019-05-10T03:26:23.062Z,13.50
2019-05-10T03:28:52.382Z,13.50
2019-05-10T03:31:21.767Z,13.60
2019-05-10T03:33:56.446Z,13.60
2019-05-10T03:36:22.060Z,13.60
2019-05-10T03:38:51.621Z,13.50
2019-05-10T03:41:21.263Z,13.60
2019-05-10T03:43:50.549Z,13.60
2019-05-10T03:46:19.856Z,13.60
2019-05-10T03:48:49.159Z,13.60
2019-05-10T03:51:18.486Z,13.60
2019-05-10T03:53:47.798Z,13.60
2019-05-10T03:56:17.120Z,13.50
2019-05-10T03:58:46.436Z,13.50
2019-05-10T04:01:15.930Z,13.50
2019-05-10T04:03:45.251Z,13.50
2019-05-10T04:06:14.571Z,13.50
2019-05-10T04:08:43.900Z,13.40
2019-05-10T04:11:13.216Z,13.40
2019-05-10T04:13:42.630Z,13.30
2019-05-10T04:16:11.932Z,13.30
2019-05-10T04:18:41.242Z,13.20
2019-05-10T04:21:11.627Z,13.20
2019-05-10T04:23:41.045Z,13.20
2019-05-10T04:26:10.474Z,13.20
2019-05-10T04:28:39.846Z,13.10
2019-05-10T04:31:09.168Z,13.10
2019-05-10T04:33:38.502Z,13.00
2019-05-10T04:36:12.317Z,13.00
2019-05-10T04:38:38.935Z,12.90
2019-05-10T04:41:09.308Z,12.90
2019-05-10T04:43:38.633Z,12.90
2019-05-10T04:46:07.939Z,12.90
2019-05-10T04:48:37.348Z,12.80
2019-05-10T04:51:06.667Z,12.80
2019-05-10T04:53:35.978Z,12.80
2019-05-10T04:56:05.511Z,12.90
2019-05-10T04:58:34.811Z,12.90
2019-05-10T05:01:04.216Z,13.00
2019-05-10T05:03:33.592Z,13.00
2019-05-10T05:06:02.905Z,13.10
2019-05-10T05:08:32.266Z,13.10
2019-05-10T05:11:01.598Z,13.10
2019-05-10T05:13:30.932Z,13.10
2019-05-10T05:16:00.302Z,13.10
2019-05-10T05:18:29.623Z,13.20
2019-05-10T05:20:59.310Z,13.20
2019-05-10T05:23:28.679Z,13.20
2019-05-10T05:25:58.205Z,13.30
2019-05-10T05:28:27.503Z,13.40
2019-05-10T05:30:56.969Z,13.40
2019-05-10T05:33:26.306Z,13.50
2019-05-10T05:36:14.346Z,13.50
2019-05-10T05:38:46.917Z,13.60
2019-05-10T05:41:14.849Z,13.60
2019-05-10T05:43:46.439Z,13.60
2019-05-10T05:46:15.215Z,13.40
2019-05-10T05:48:44.544Z,13.40
2019-05-10T05:51:13.854Z,13.40
2019-05-10T05:53:44.761Z,13.50
2019-05-10T05:56:14.788Z,13.30
2019-05-10T05:58:46.972Z,13.30
2019-05-10T06:01:24.742Z,13.30
2019-05-10T06:03:46.425Z,13.30
2019-05-10T06:06:21.261Z,13.30
2019-05-10T06:08:46.723Z,13.30
2019-05-10T06:11:16.026Z,13.10
2019-05-10T06:13:45.337Z,13.20
2019-05-10T06:16:14.917Z,13.40
2019-05-10T06:18:47.524Z,13.60
2019-05-10T06:21:17.736Z,13.60
2019-05-10T06:23:47.632Z,13.90
2019-05-10T06:26:26.595Z,14.00
2019-05-10T06:28:59.659Z,14.00
2019-05-10T06:31:19.117Z,13.90
2019-05-10T06:33:48.425Z,13.90
2019-05-10T06:36:17.736Z,14.00
2019-05-10T06:38:47.053Z,14.10
2019-05-10T06:41:17.432Z,14.30
2019-05-10T06:43:51.369Z,14.60
2019-05-10T06:46:23.808Z,14.60
2019-05-10T06:48:50.938Z,14.60
2019-05-10T06:51:20.271Z,14.50
2019-05-10T06:53:53.644Z,14.60
2019-05-10T06:56:20.611Z,14.40
2019-05-10T06:58:49.958Z,14.30
2019-05-10T07:01:19.319Z,14.20
2019-05-10T07:03:48.639Z,14.30
2019-05-10T07:06:18.020Z,14.40
2019-05-10T07:08:51.795Z,14.50
2019-05-10T07:11:19.302Z,14.40
2019-05-10T07:13:52.865Z,14.50
2019-05-10T07:16:23.907Z,14.60
2019-05-10T07:18:54.955Z,14.70
2019-05-10T07:21:21.709Z,14.80
2019-05-10T07:23:51.020Z,15.10
2019-05-10T07:26:24.253Z,15.10
2019-05-10T07:28:57.010Z,14.80
2019-05-10T07:31:23.693Z,14.60
2019-05-10T07:33:53.347Z,14.90
2019-05-10T07:36:27.214Z,14.90
2019-05-10T07:38:53.737Z,15.10
2019-05-10T07:41:26.351Z,15.30
2019-05-10T07:44:00.890Z,15.30
2019-05-10T07:46:25.248Z,15.40
2019-05-10T07:48:54.591Z,15.40
2019-05-10T07:51:28.729Z,15.30
2019-05-10T07:53:57.145Z,15.50
2019-05-10T07:56:26.003Z,15.50
2019-05-10T07:58:55.551Z,15.60
2019-05-10T08:01:32.553Z,15.50
2019-05-10T08:03:55.879Z,15.60
2019-05-10T08:06:26.206Z,15.60
2019-05-10T08:09:01.041Z,15.50
2019-05-10T08:11:28.531Z,15.40
2019-05-10T08:14:05.853Z,15.30
2019-05-10T08:16:29.081Z,15.50
2019-05-10T08:19:01.004Z,15.50
2019-05-10T08:21:32.052Z,15.50
2019-05-10T08:24:07.217Z,15.50
2019-05-10T08:26:32.827Z,15.70
2019-05-10T08:29:02.428Z,15.90
2019-05-10T08:31:40.200Z,15.90
2019-05-10T08:34:02.810Z,16.30
2019-05-10T08:36:32.415Z,16.70
2019-05-10T08:39:10.412Z,17.00
2019-05-10T08:41:36.067Z,17.00
2019-05-10T08:44:05.477Z,17.10
2019-05-10T08:46:40.982Z,16.90
2019-05-10T08:49:05.803Z,16.80
2019-05-10T08:51:43.963Z,16.80
2019-05-10T08:54:06.228Z,16.60
2019-05-10T08:56:35.555Z,16.20
2019-05-10T08:59:09.494Z,15.90
2019-05-10T09:01:44.419Z,15.80
2019-05-10T09:04:10.675Z,15.80
2019-05-10T09:06:38.007Z,15.70
2019-05-10T09:09:08.595Z,15.50
2019-05-10T09:11:38.043Z,15.60
2019-05-10T09:14:12.391Z,15.80
2019-05-10T09:16:43.526Z,15.80
2019-05-10T09:19:09.443Z,16.00
2019-05-10T09:21:40.902Z,16.20
2019-05-10T09:24:09.887Z,16.40
2019-05-10T09:26:41.701Z,16.60
2019-05-10T09:29:12.165Z,16.60
2019-05-10T09:31:46.051Z,16.50
2019-05-10T09:34:12.586Z,16.20
2019-05-10T09:36:44.899Z,16.30
2019-05-10T09:39:18.212Z,16.50
2019-05-10T09:41:45.083Z,16.70
2019-05-10T09:44:14.382Z,16.80
2019-05-10T09:46:44.886Z,17.10
2019-05-10T09:49:18.223Z,17.20
2019-05-10T09:51:45.558Z,17.30
2019-05-10T09:54:14.928Z,17.60
2019-05-10T09:56:45.804Z,17.50
2019-05-10T09:59:19.190Z,17.80
2019-05-10T10:01:48.707Z,17.60
2019-05-10T10:04:20.479Z,17.60
2019-05-10T10:06:52.879Z,17.70
2019-05-10T10:09:24.741Z,18.10
2019-05-10T10:11:57.654Z,17.80
2019-05-10T10:14:28.147Z,17.80
2019-05-10T10:17:00.251Z,17.80
2019-05-10T10:19:28.051Z,17.90
2019-05-10T10:21:57.725Z,17.90
2019-05-10T10:24:28.491Z,17.20
2019-05-10T10:26:58.292Z,16.90
2019-05-10T10:29:28.675Z,16.80
2019-05-10T10:31:59.130Z,16.60
2019-05-10T10:34:32.521Z,15.90
2019-05-10T10:36:59.739Z,15.60
2019-05-10T10:39:29.147Z,15.50
2019-05-10T10:42:02.603Z,15.40
2019-05-10T10:44:30.168Z,15.50
2019-05-10T10:46:59.556Z,15.70
2019-05-10T10:49:31.927Z,15.80
2019-05-10T10:51:59.963Z,16.30
2019-05-10T10:54:36.203Z,16.80
2019-05-10T10:57:00.486Z,16.90
2019-05-10T10:59:29.779Z,16.60
2019-05-10T11:02:27.476Z,16.60
2019-05-10T11:04:30.206Z,16.80
2019-05-10T11:07:09.774Z,17.10
2019-05-10T11:09:31.142Z,17.50
2019-05-10T11:12:00.996Z,17.40
2019-05-10T11:14:32.006Z,16.90
2019-05-10T11:17:01.550Z,16.60
2019-05-10T11:19:31.679Z,16.60
2019-05-10T11:22:09.355Z,16.40
2019-05-10T11:24:33.095Z,16.30
2019-05-10T11:27:02.410Z,16.30
2019-05-10T11:29:31.838Z,16.20
2019-05-10T11:32:14.720Z,16.20
2019-05-10T11:34:37.301Z,16.40
2019-05-10T11:37:04.206Z,16.80
2019-05-10T11:39:41.970Z,17.30
2019-05-10T11:42:07.086Z,18.10
2019-05-10T11:44:40.761Z,18.60
2019-05-10T11:47:21.009Z,19.10
2019-05-10T11:49:37.879Z,19.50
2019-05-10T11:52:09.980Z,19.50
2019-05-10T11:54:38.244Z,19.40
2019-05-10T11:57:10.920Z,19.40
2019-05-10T11:59:41.453Z,19.40
2019-05-10T12:02:33.809Z,19.40
2019-05-10T12:04:43.382Z,19.70
2019-05-10T12:07:13.220Z,19.60
2019-05-10T12:09:42.812Z,19.20
2019-05-10T12:12:12.537Z,19.20
2019-05-10T12:14:43.633Z,19.40
2019-05-10T12:17:14.247Z,19.60
2019-05-10T12:19:50.600Z,19.60
2019-05-10T12:22:16.168Z,19.80
2019-05-10T12:25:00.315Z,20.00
2019-05-10T12:27:24.829Z,19.70
2019-05-10T12:29:55.932Z,20.10
2019-05-10T12:32:21.183Z,20.10
2019-05-10T12:34:52.045Z,20.50
2019-05-10T12:37:20.811Z,20.80
2019-05-10T12:39:52.864Z,20.50
2019-05-10T12:42:21.795Z,20.10
2019-05-10T12:44:52.016Z,19.10
2019-05-10T12:47:22.443Z,18.50
2019-05-10T12:49:53.919Z,17.70
2019-05-10T12:52:28.558Z,17.00
2019-05-10T12:54:56.254Z,16.30
2019-05-10T12:57:25.590Z,15.90
2019-05-10T12:59:54.922Z,15.90
2019-05-10T13:02:24.286Z,15.80
2019-05-10T13:04:54.367Z,15.10
2019-05-10T13:07:23.807Z,15.30
2019-05-10T13:10:01.628Z,15.40
2019-05-10T13:12:24.177Z,15.60
2019-05-10T13:14:53.503Z,15.90
2019-05-10T13:17:22.840Z,16.30
2019-05-10T13:19:58.057Z,16.70
2019-05-10T13:22:23.666Z,17.10
2019-05-10T13:24:53.029Z,17.60
2019-05-10T13:27:22.330Z,18.10
2019-05-10T13:29:53.557Z,18.60
2019-05-10T13:32:22.656Z,18.80
2019-05-10T13:34:53.038Z,19.20
2019-05-10T13:37:24.736Z,19.50
2019-05-10T13:39:58.279Z,19.60
2019-05-10T13:42:24.400Z,19.70
2019-05-10T13:44:53.738Z,20.00
2019-05-10T13:47:23.043Z,19.90
2019-05-10T13:49:52.409Z,19.70
2019-05-10T13:52:22.094Z,19.40
2019-05-10T13:54:51.395Z,19.40
2019-05-10T13:57:20.772Z,19.50
2019-05-10T13:59:55.144Z,19.00
2019-05-10T14:02:30.072Z,19.10
2019-05-10T14:04:53.372Z,19.10
2019-05-10T14:07:22.687Z,19.20
2019-05-10T14:09:52.333Z,19.00
2019-05-10T14:12:23.923Z,18.90
2019-05-10T14:15:00.017Z,18.80
2019-05-10T14:17:23.878Z,18.70
2019-05-10T14:19:53.309Z,18.40
2019-05-10T14:22:22.610Z,18.20
2019-05-10T14:24:58.535Z,18.10
2019-05-10T14:27:22.938Z,18.10
2019-05-10T14:29:52.295Z,18.10
2019-05-10T14:32:21.658Z,18.00
2019-05-10T14:34:50.959Z,18.00
2019-05-10T14:37:21.649Z,18.20
2019-05-10T14:39:52.118Z,18.10
2019-05-10T14:42:24.179Z,17.90
2019-05-10T14:44:52.547Z,18.00
2019-05-10T14:47:21.874Z,18.20
2019-05-10T14:49:51.162Z,18.10
2019-05-10T14:52:22.554Z,18.10
2019-05-10T14:54:55.245Z,18.30
2019-05-10T14:57:23.675Z,18.70
2019-05-10T14:59:53.045Z,18.70
2019-05-10T15:02:23.274Z,19.10
2019-05-10T15:04:53.411Z,19.30
2019-05-10T15:07:22.789Z,19.20
2019-05-10T15:09:54.344Z,19.30
2019-05-10T15:12:23.219Z,19.00
2019-05-10T15:14:53.168Z,19.30
2019-05-10T15:17:22.584Z,19.20
2019-05-10T15:19:57.645Z,19.10
2019-05-10T15:22:24.552Z,19.20
2019-05-10T15:24:53.985Z,19.60
2019-05-10T15:27:24.056Z,19.60
2019-05-10T15:29:58.780Z,19.30
2019-05-10T15:32:24.470Z,19.30
2019-05-10T15:35:06.453Z,19.30
2019-05-10T15:37:24.775Z,19.80
2019-05-10T15:39:54.093Z,19.80
2019-05-10T15:42:23.458Z,20.00
2019-05-10T15:44:52.899Z,19.80
2019-05-10T15:47:22.629Z,19.80
2019-05-10T15:49:54.460Z,19.80
2019-05-10T15:52:23.584Z,19.90
2019-05-10T15:54:53.265Z,20.00
2019-05-10T15:57:22.980Z,19.80
2019-05-10T15:59:56.932Z,19.70
2019-05-10T16:02:23.297Z,19.80
2019-05-10T16:04:52.617Z,19.80
2019-05-10T16:07:21.936Z,19.50
2019-05-10T16:09:54.434Z,19.40
2019-05-10T16:12:22.340Z,19.40
2019-05-10T16:14:51.638Z,19.20
2019-05-10T16:17:24.015Z,19.00
2019-05-10T16:19:59.602Z,19.20
2019-05-10T16:22:25.218Z,19.40
2019-05-10T16:25:00.981Z,19.40
2019-05-10T16:27:25.210Z,19.40
2019-05-10T16:29:54.575Z,19.30
2019-05-10T16:32:29.437Z,19.30
2019-05-10T16:34:55.897Z,19.20
2019-05-10T16:37:25.210Z,19.10
2019-05-10T16:39:54.499Z,19.10
2019-05-10T16:42:27.658Z,18.80
2019-05-10T16:44:54.807Z,18.80
2019-05-10T16:47:24.122Z,19.00
2019-05-10T16:49:55.095Z,19.10
2019-05-10T16:52:25.846Z,19.00
2019-05-10T16:54:57.871Z,18.90
2019-05-10T16:57:31.936Z,18.80
2019-05-10T17:00:02.019Z,18.60
2019-05-10T17:02:28.778Z,18.30
2019-05-10T17:04:58.077Z,18.20
2019-05-10T17:07:27.378Z,18.40
2019-05-10T17:09:56.703Z,18.40
2019-05-10T17:12:27.583Z,18.60
2019-05-10T17:15:02.268Z,18.60
2019-05-10T17:17:31.154Z,18.60
2019-05-10T17:20:00.112Z,18.60
2019-05-10T17:22:29.424Z,18.50
2019-05-10T17:25:03.527Z,18.60
2019-05-10T17:27:30.383Z,18.80
2019-05-10T17:29:59.708Z,18.20
2019-05-10T17:32:29.023Z,18.00
2019-05-10T17:34:59.249Z,17.80
2019-05-10T17:37:29.775Z,17.60
2019-05-10T17:40:04.773Z,17.80
2019-05-10T17:42:35.531Z,17.70
2019-05-10T17:45:04.509Z,17.70
2019-05-10T17:47:33.767Z,17.90
2019-05-10T17:50:06.553Z,17.90
2019-05-10T17:52:35.838Z,17.80
2019-05-10T17:55:10.920Z,17.80
2019-05-10T17:57:37.356Z,17.90
2019-05-10T18:00:07.643Z,17.70
2019-05-10T18:02:37.019Z,17.70
2019-05-10T18:05:08.259Z,17.80
2019-05-10T18:07:37.878Z,17.70
2019-05-10T18:10:07.836Z,17.40
2019-05-10T18:12:37.250Z,17.40
2019-05-10T18:15:10.314Z,17.50
2019-05-10T18:17:39.598Z,17.50
2019-05-10T18:20:10.176Z,17.50
2019-05-10T18:22:43.405Z,17.40
2019-05-10T18:25:19.342Z,17.20
2019-05-10T18:27:42.937Z,17.20
2019-05-10T18:30:12.708Z,17.10
2019-05-10T18:32:42.050Z,17.10
2019-05-10T18:35:14.902Z,17.00
2019-05-10T18:37:42.511Z,16.90
2019-05-10T18:40:12.223Z,16.90
2019-05-10T18:42:41.597Z,16.90
2019-05-10T18:45:11.283Z,16.70
2019-05-10T18:47:40.593Z,16.50
2019-05-10T18:50:10.355Z,16.60
2019-05-10T18:52:39.666Z,16.50
2019-05-10T18:55:09.300Z,16.50
2019-05-10T18:57:38.671Z,16.50
2019-05-10T19:00:08.537Z,16.50
2019-05-10T19:02:37.894Z,16.20
2019-05-10T19:05:07.944Z,16.10
2019-05-10T19:07:37.359Z,16.00
2019-05-10T19:10:07.679Z,16.00
2019-05-10T19:12:37.280Z,15.80
2019-05-10T19:15:12.675Z,15.60
2019-05-10T19:17:40.471Z,15.20
2019-05-10T19:20:16.459Z,15.20
2019-05-10T19:22:42.779Z,15.30
2019-05-10T19:25:14.449Z,15.20
2019-05-10T19:27:47.883Z,15.10
2019-05-10T19:30:20.097Z,15.00
2019-05-10T19:32:51.167Z,15.10
2019-05-10T19:35:17.600Z,15.10
2019-05-10T19:37:46.911Z,14.90
2019-05-10T19:40:16.412Z,14.90
2019-05-10T19:42:49.298Z,15.00
2019-05-10T19:45:21.102Z,15.00
2019-05-10T19:47:55.213Z,14.90
2019-05-10T19:50:24.336Z,14.90
2019-05-10T19:52:52.560Z,14.90
2019-05-10T19:55:22.310Z,14.70
2019-05-10T19:57:54.946Z,14.70
2019-05-10T20:00:24.697Z,14.60
2019-05-10T20:02:55.608Z,14.70
2019-05-10T20:05:25.342Z,14.70
2019-05-10T20:07:55.071Z,14.70
2019-05-10T20:10:24.778Z,14.60
2019-05-10T20:12:54.604Z,14.60
2019-05-10T20:15:24.395Z,14.50
2019-05-10T20:17:54.232Z,14.60
2019-05-10T20:20:23.979Z,14.60
2019-05-10T20:22:53.572Z,14.70
2019-05-10T20:25:23.299Z,14.50
2019-05-10T20:27:52.961Z,14.50
2019-05-10T20:30:22.755Z,14.50
2019-05-10T20:32:52.606Z,14.60
2019-05-10T20:35:22.357Z,14.60
2019-05-10T20:38:01.513Z,14.60
2019-05-10T20:40:23.561Z,14.50
2019-05-10T20:42:53.257Z,14.50
2019-05-10T20:45:22.932Z,14.50
2019-05-10T20:47:52.796Z,14.40
2019-05-10T20:50:22.491Z,14.40
2019-05-10T20:52:52.163Z,14.40
2019-05-10T20:55:22.012Z,14.50
2019-05-10T20:57:51.856Z,14.50
2019-05-10T21:00:23.984Z,14.50
2019-05-10T21:02:52.823Z,14.30
2019-05-10T21:05:22.451Z,14.30
2019-05-10T21:07:52.139Z,14.30
2019-05-10T21:10:22.220Z,14.20
2019-05-10T21:12:51.847Z,14.20
2019-05-10T21:15:21.378Z,14.30
2019-05-10T21:17:51.141Z,14.40
2019-05-10T21:20:20.765Z,14.30
2019-05-10T21:22:50.647Z,14.30
2019-05-10T21:25:20.596Z,14.40
2019-05-10T21:27:50.494Z,14.50
2019-05-10T21:30:20.230Z,14.50
2019-05-10T21:32:50.106Z,14.60
2019-05-10T21:35:21.468Z,14.50
2019-05-10T21:37:51.394Z,14.40
2019-05-10T21:40:22.188Z,14.40
2019-05-10T21:42:52.048Z,14.30
2019-05-10T21:45:21.841Z,14.30
2019-05-10T21:47:52.168Z,14.30
2019-05-10T21:50:22.206Z,14.20
2019-05-10T21:52:52.201Z,14.30
2019-05-10T21:55:22.135Z,14.30
2019-05-10T21:57:51.887Z,14.30
2019-05-10T22:00:23.881Z,14.10
2019-05-10T22:02:57.202Z,14.10
2019-05-10T22:05:26.886Z,14.10
2019-05-10T22:07:56.594Z,14.10
2019-05-10T22:10:26.400Z,14.00
2019-05-10T22:12:55.973Z,14.10
2019-05-10T22:15:25.876Z,14.20
2019-05-10T22:17:55.492Z,14.20
2019-05-10T22:20:25.220Z,14.20
2019-05-10T22:22:54.646Z,14.20
2019-05-10T22:25:23.957Z,14.20
2019-05-10T22:27:53.261Z,14.20
2019-05-10T22:30:22.739Z,14.30
2019-05-10T22:32:52.026Z,14.30
2019-05-10T22:35:21.353Z,14.30
2019-05-10T22:37:50.650Z,14.30
2019-05-10T22:40:19.970Z,14.30
2019-05-10T22:42:49.351Z,14.30
2019-05-10T22:45:18.695Z,14.30
2019-05-10T22:47:48.014Z,14.30
2019-05-10T22:50:17.562Z,14.30
2019-05-10T22:52:46.862Z,14.30
2019-05-10T22:55:16.191Z,14.30
2019-05-10T22:57:45.482Z,14.30
2019-05-10T23:00:15.329Z,14.30
2019-05-10T23:02:44.640Z,14.30
2019-05-10T23:05:13.954Z,14.20
2019-05-10T23:07:43.279Z,14.30
2019-05-10T23:10:12.787Z,14.30
2019-05-10T23:12:42.086Z,14.20
2019-05-10T23:15:11.492Z,14.20
2019-05-10T23:17:40.798Z,14.40
2019-05-10T23:20:10.179Z,14.40
2019-05-10T23:22:39.542Z,14.50
2019-05-10T23:25:08.935Z,14.40
2019-05-10T23:27:38.252Z,14.10
2019-05-10T23:30:07.709Z,13.90
2019-05-10T23:32:37.008Z,13.90
2019-05-10T23:35:06.890Z,14.00
2019-05-10T23:37:36.266Z,14.10
2019-05-10T23:40:06.533Z,14.20
2019-05-10T23:42:35.827Z,14.30
2019-05-10T23:45:06.673Z,14.30
2019-05-10T23:47:35.980Z,14.20
2019-05-10T23:50:05.510Z,14.30
2019-05-10T23:52:34.806Z,14.30
2019-05-10T23:55:06.126Z,14.30
2019-05-10T23:57:35.442Z,14.30
